sensor_id;sensor_type;location;lat;lon;timestamp;pressure;altitude;pressure_sealevel;temperature;humidity
60611;BME280;46439;51.164;13.572;2023-04-30T00:01:31;100223.52;;;14.26;100.00
60611;BME280;46439;51.164;13.572;2023-04-30T00:04:00;100223.40;;;14.16;100.00
60611;BME280;46439;51.164;13.572;2023-04-30T00:06:29;100227.95;;;14.02;100.00
60611;BME280;46439;51.164;13.572;2023-04-30T00:08:58;100231.53;;;13.92;100.00
60611;BME280;46439;51.164;13.572;2023-04-30T00:11:26;100232.80;;;13.80;100.00
60611;BME280;46439;51.164;13.572;2023-04-30T00:13:55;100234.48;;;13.71;100.00
60611;BME280;46439;51.164;13.572;2023-04-30T00:16:24;100243.28;;;13.65;100.00
60611;BME280;46439;51.164;13.572;2023-04-30T00:18:53;100246.51;;;13.59;100.00
60611;BME280;46439;51.164;13.572;2023-04-30T00:21:21;100250.90;;;13.49;100.00
60611;BME280;46439;51.164;13.572;2023-04-30T00:23:49;100251.73;;;13.41;100.00
60611;BME280;46439;51.164;13.572;2023-04-30T00:26:18;100250.67;;;13.35;100.00
60611;BME280;46439;51.164;13.572;2023-04-30T00:28:46;100255.09;;;13.22;100.00
60611;BME280;46439;51.164;13.572;2023-04-30T00:31:15;100258.84;;;13.17;100.00
60611;BME280;46439;51.164;13.572;2023-04-30T00:33:43;100261.36;;;13.14;100.00
60611;BME280;46439;51.164;13.572;2023-04-30T00:36:12;100265.02;;;13.14;100.00
60611;BME280;46439;51.164;13.572;2023-04-30T00:38:41;100265.77;;;13.11;100.00
60611;BME280;46439;51.164;13.572;2023-04-30T00:41:10;100266.21;;;13.07;100.00
60611;BME280;46439;51.164;13.572;2023-04-30T00:43:38;100271.03;;;13.08;100.00
60611;BME280;46439;51.164;13.572;2023-04-30T00:46:07;100273.02;;;13.10;100.00
60611;BME280;46439;51.164;13.572;2023-04-30T00:48:35;100275.66;;;13.11;100.00
60611;BME280;46439;51.164;13.572;2023-04-30T00:51:05;100279.00;;;13.12;100.00
60611;BME280;46439;51.164;13.572;2023-04-30T00:53:34;100279.75;;;13.11;100.00
60611;BME280;46439;51.164;13.572;2023-04-30T00:56:04;100284.46;;;13.11;100.00
60611;BME280;46439;51.164;13.572;2023-04-30T00:58:34;100284.39;;;13.12;100.00
60611;BME280;46439;51.164;13.572;2023-04-30T01:01:03;100289.66;;;13.13;100.00
60611;BME280;46439;51.164;13.572;2023-04-30T01:03:31;100289.64;;;13.12;100.00
60611;BME280;46439;51.164;13.572;2023-04-30T01:06:03;100292.20;;;13.10;100.00
60611;BME280;46439;51.164;13.572;2023-04-30T01:08:32;100293.73;;;13.06;100.00
60611;BME280;46439;51.164;13.572;2023-04-30T01:11:11;100297.35;;;13.03;100.00
60611;BME280;46439;51.164;13.572;2023-04-30T01:13:52;100297.43;;;13.00;100.00
60611;BME280;46439;51.164;13.572;2023-04-30T01:16:24;100303.58;;;12.98;100.00
60611;BME280;46439;51.164;13.572;2023-04-30T01:18:58;100306.16;;;12.95;100.00
60611;BME280;46439;51.164;13.572;2023-04-30T01:21:28;100311.91;;;12.87;100.00
60611;BME280;46439;51.164;13.572;2023-04-30T01:24:22;100312.66;;;12.84;100.00
60611;BME280;46439;51.164;13.572;2023-04-30T01:27:14;100312.92;;;12.85;100.00
60611;BME280;46439;51.164;13.572;2023-04-30T01:29:53;100315.71;;;12.77;100.00
60611;BME280;46439;51.164;13.572;2023-04-30T01:32:23;100323.23;;;12.65;100.00
60611;BME280;46439;51.164;13.572;2023-04-30T01:34:51;100322.07;;;12.52;100.00
60611;BME280;46439;51.164;13.572;2023-04-30T01:37:23;100328.54;;;12.46;100.00
60611;BME280;46439;51.164;13.572;2023-04-30T01:40:11;100328.20;;;12.43;100.00
60611;BME280;46439;51.164;13.572;2023-04-30T01:42:47;100333.69;;;12.38;100.00
60611;BME280;46439;51.164;13.572;2023-04-30T01:45:27;100335.66;;;12.34;100.00
60611;BME280;46439;51.164;13.572;2023-04-30T01:48:10;100341.84;;;12.30;100.00
60611;BME280;46439;51.164;13.572;2023-04-30T01:50:48;100346.80;;;12.28;100.00
60611;BME280;46439;51.164;13.572;2023-04-30T01:53:22;100348.98;;;12.24;100.00
60611;BME280;46439;51.164;13.572;2023-04-30T01:55:56;100352.77;;;12.20;100.00
60611;BME280;46439;51.164;13.572;2023-04-30T01:58:25;100359.34;;;12.15;100.00
60611;BME280;46439;51.164;13.572;2023-04-30T02:00:54;100365.60;;;12.09;100.00
60611;BME280;46439;51.164;13.572;2023-04-30T02:03:23;100366.86;;;12.01;100.00
60611;BME280;46439;51.164;13.572;2023-04-30T02:05:51;100376.00;;;11.94;100.00
60611;BME280;46439;51.164;13.572;2023-04-30T02:08:20;100376.55;;;11.87;100.00
60611;BME280;46439;51.164;13.572;2023-04-30T02:10:48;100377.35;;;11.80;100.00
60611;BME280;46439;51.164;13.572;2023-04-30T02:13:18;100382.98;;;11.77;100.00
60611;BME280;46439;51.164;13.572;2023-04-30T02:15:47;100390.07;;;11.71;100.00
60611;BME280;46439;51.164;13.572;2023-04-30T02:18:15;100399.02;;;11.64;100.00
60611;BME280;46439;51.164;13.572;2023-04-30T02:20:44;100404.55;;;11.55;100.00
60611;BME280;46439;51.164;13.572;2023-04-30T02:23:12;100414.09;;;11.42;100.00
60611;BME280;46439;51.164;13.572;2023-04-30T02:25:41;100418.88;;;11.36;100.00
60611;BME280;46439;51.164;13.572;2023-04-30T02:28:10;100419.52;;;11.29;100.00
60611;BME280;46439;51.164;13.572;2023-04-30T02:30:38;100425.77;;;11.20;100.00
60611;BME280;46439;51.164;13.572;2023-04-30T02:33:07;100427.17;;;11.10;100.00
60611;BME280;46439;51.164;13.572;2023-04-30T02:35:35;100434.08;;;11.02;100.00
60611;BME280;46439;51.164;13.572;2023-04-30T02:38:04;100443.44;;;10.90;100.00
60611;BME280;46439;51.164;13.572;2023-04-30T02:40:32;100446.79;;;10.79;100.00
60611;BME280;46439;51.164;13.572;2023-04-30T02:43:01;100446.95;;;10.71;100.00
60611;BME280;46439;51.164;13.572;2023-04-30T02:45:29;100448.56;;;10.67;100.00
60611;BME280;46439;51.164;13.572;2023-04-30T02:47:58;100452.34;;;10.63;100.00
60611;BME280;46439;51.164;13.572;2023-04-30T02:50:27;100449.47;;;10.60;100.00
60611;BME280;46439;51.164;13.572;2023-04-30T02:52:55;100454.36;;;10.54;100.00
60611;BME280;46439;51.164;13.572;2023-04-30T02:55:23;100454.66;;;10.52;100.00
60611;BME280;46439;51.164;13.572;2023-04-30T02:57:52;100456.64;;;10.45;100.00
60611;BME280;46439;51.164;13.572;2023-04-30T03:00:21;100463.34;;;10.41;100.00
60611;BME280;46439;51.164;13.572;2023-04-30T03:02:50;100465.73;;;10.39;100.00
60611;BME280;46439;51.164;13.572;2023-04-30T03:05:19;100471.70;;;10.40;100.00
60611;BME280;46439;51.164;13.572;2023-04-30T03:07:47;100474.31;;;10.43;100.00
60611;BME280;46439;51.164;13.572;2023-04-30T03:10:16;100473.78;;;10.45;100.00
60611;BME280;46439;51.164;13.572;2023-04-30T03:12:46;100479.05;;;10.46;100.00
60611;BME280;46439;51.164;13.572;2023-04-30T03:15:14;100481.84;;;10.45;100.00
60611;BME280;46439;51.164;13.572;2023-04-30T03:17:43;100485.95;;;10.42;100.00
60611;BME280;46439;51.164;13.572;2023-04-30T03:20:13;100486.88;;;10.40;100.00
60611;BME280;46439;51.164;13.572;2023-04-30T03:22:41;100491.03;;;10.40;100.00
60611;BME280;46439;51.164;13.572;2023-04-30T03:25:11;100493.09;;;10.39;100.00
60611;BME280;46439;51.164;13.572;2023-04-30T03:27:39;100492.67;;;10.34;100.00
60611;BME280;46439;51.164;13.572;2023-04-30T03:30:09;100495.58;;;10.34;100.00
60611;BME280;46439;51.164;13.572;2023-04-30T03:32:37;100498.48;;;10.34;100.00
60611;BME280;46439;51.164;13.572;2023-04-30T03:35:07;100497.20;;;10.31;100.00
60611;BME280;46439;51.164;13.572;2023-04-30T03:37:36;100501.02;;;10.30;100.00
60611;BME280;46439;51.164;13.572;2023-04-30T03:40:06;100503.54;;;10.27;100.00
60611;BME280;46439;51.164;13.572;2023-04-30T03:42:35;100502.07;;;10.18;100.00
60611;BME280;46439;51.164;13.572;2023-04-30T03:45:05;100504.70;;;10.12;100.00
60611;BME280;46439;51.164;13.572;2023-04-30T03:47:34;100507.94;;;10.12;100.00
60611;BME280;46439;51.164;13.572;2023-04-30T03:50:03;100507.27;;;10.05;100.00
60611;BME280;46439;51.164;13.572;2023-04-30T03:52:33;100510.65;;;10.00;100.00
60611;BME280;46439;51.164;13.572;2023-04-30T03:55:01;100512.14;;;9.93;100.00
60611;BME280;46439;51.164;13.572;2023-04-30T03:57:30;100516.30;;;9.88;100.00
60611;BME280;46439;51.164;13.572;2023-04-30T03:59:59;100524.46;;;9.85;100.00
60611;BME280;46439;51.164;13.572;2023-04-30T04:02:27;100529.84;;;9.84;100.00
60611;BME280;46439;51.164;13.572;2023-04-30T04:04:59;100531.27;;;9.84;100.00
60611;BME280;46439;51.164;13.572;2023-04-30T04:07:27;100530.73;;;9.85;100.00
60611;BME280;46439;51.164;13.572;2023-04-30T04:09:56;100531.27;;;9.80;100.00
60611;BME280;46439;51.164;13.572;2023-04-30T04:12:24;100533.55;;;9.83;100.00
60611;BME280;46439;51.164;13.572;2023-04-30T04:14:53;100538.41;;;9.79;100.00
60611;BME280;46439;51.164;13.572;2023-04-30T04:17:21;100541.89;;;9.78;100.00
60611;BME280;46439;51.164;13.572;2023-04-30T04:19:50;100546.48;;;9.79;100.00
60611;BME280;46439;51.164;13.572;2023-04-30T04:22:18;100544.41;;;9.78;100.00
60611;BME280;46439;51.164;13.572;2023-04-30T04:24:47;100549.86;;;9.76;100.00
60611;BME280;46439;51.164;13.572;2023-04-30T04:27:15;100551.36;;;9.73;100.00
60611;BME280;46439;51.164;13.572;2023-04-30T04:29:44;100561.34;;;9.69;100.00
60611;BME280;46439;51.164;13.572;2023-04-30T04:32:13;100565.01;;;9.68;100.00
60611;BME280;46439;51.164;13.572;2023-04-30T04:34:41;100568.16;;;9.67;100.00
60611;BME280;46439;51.164;13.572;2023-04-30T04:37:11;100571.96;;;9.67;100.00
60611;BME280;46439;51.164;13.572;2023-04-30T04:39:39;100577.50;;;9.64;100.00
60611;BME280;46439;51.164;13.572;2023-04-30T04:42:08;100581.42;;;9.64;100.00
60611;BME280;46439;51.164;13.572;2023-04-30T04:44:36;100580.53;;;9.68;100.00
60611;BME280;46439;51.164;13.572;2023-04-30T04:47:05;100586.48;;;9.69;100.00
60611;BME280;46439;51.164;13.572;2023-04-30T04:49:34;100594.09;;;9.69;100.00
60611;BME280;46439;51.164;13.572;2023-04-30T04:52:02;100600.98;;;9.66;100.00
60611;BME280;46439;51.164;13.572;2023-04-30T04:54:32;100610.54;;;9.61;100.00
60611;BME280;46439;51.164;13.572;2023-04-30T04:57:01;100613.13;;;9.55;100.00
60611;BME280;46439;51.164;13.572;2023-04-30T04:59:30;100618.02;;;9.54;100.00
60611;BME280;46439;51.164;13.572;2023-04-30T05:01:58;100618.91;;;9.54;100.00
60611;BME280;46439;51.164;13.572;2023-04-30T05:04:27;100617.23;;;9.55;100.00
60611;BME280;46439;51.164;13.572;2023-04-30T05:06:57;100620.24;;;9.48;100.00
60611;BME280;46439;51.164;13.572;2023-04-30T05:09:26;100622.60;;;9.45;100.00
60611;BME280;46439;51.164;13.572;2023-04-30T05:11:54;100623.67;;;9.45;100.00
60611;BME280;46439;51.164;13.572;2023-04-30T05:14:23;100623.60;;;9.43;100.00
60611;BME280;46439;51.164;13.572;2023-04-30T05:16:51;100629.55;;;9.38;100.00
60611;BME280;46439;51.164;13.572;2023-04-30T05:19:19;100631.57;;;9.30;100.00
60611;BME280;46439;51.164;13.572;2023-04-30T05:21:49;100632.08;;;9.25;100.00
60611;BME280;46439;51.164;13.572;2023-04-30T05:24:18;100630.80;;;9.23;100.00
60611;BME280;46439;51.164;13.572;2023-04-30T05:26:46;100632.71;;;9.22;100.00
60611;BME280;46439;51.164;13.572;2023-04-30T05:29:15;100635.83;;;9.18;100.00
60611;BME280;46439;51.164;13.572;2023-04-30T05:31:43;100640.04;;;9.12;100.00
60611;BME280;46439;51.164;13.572;2023-04-30T05:34:12;100639.48;;;9.10;100.00
60611;BME280;46439;51.164;13.572;2023-04-30T05:36:40;100637.13;;;9.07;100.00
60611;BME280;46439;51.164;13.572;2023-04-30T05:39:09;100641.56;;;9.06;100.00
60611;BME280;46439;51.164;13.572;2023-04-30T05:41:37;100647.88;;;9.05;100.00
60611;BME280;46439;51.164;13.572;2023-04-30T05:44:06;100649.52;;;8.98;100.00
60611;BME280;46439;51.164;13.572;2023-04-30T05:46:34;100651.40;;;8.95;100.00
60611;BME280;46439;51.164;13.572;2023-04-30T05:49:03;100650.27;;;8.97;100.00
60611;BME280;46439;51.164;13.572;2023-04-30T05:51:32;100652.60;;;8.97;100.00
60611;BME280;46439;51.164;13.572;2023-04-30T05:54:00;100654.22;;;8.99;100.00
60611;BME280;46439;51.164;13.572;2023-04-30T05:56:28;100655.48;;;9.05;100.00
60611;BME280;46439;51.164;13.572;2023-04-30T05:58:57;100654.83;;;9.06;100.00
60611;BME280;46439;51.164;13.572;2023-04-30T06:01:25;100655.27;;;9.03;100.00
60611;BME280;46439;51.164;13.572;2023-04-30T06:03:56;100658.48;;;8.99;100.00
60611;BME280;46439;51.164;13.572;2023-04-30T06:06:25;100655.70;;;8.97;100.00
60611;BME280;46439;51.164;13.572;2023-04-30T06:08:55;100657.34;;;8.97;100.00
60611;BME280;46439;51.164;13.572;2023-04-30T06:11:23;100658.67;;;9.01;100.00
60611;BME280;46439;51.164;13.572;2023-04-30T06:13:55;100661.79;;;9.06;100.00
60611;BME280;46439;51.164;13.572;2023-04-30T06:16:24;100660.89;;;9.14;100.00
60611;BME280;46439;51.164;13.572;2023-04-30T06:18:52;100662.41;;;9.20;100.00
60611;BME280;46439;51.164;13.572;2023-04-30T06:21:21;100662.23;;;9.25;100.00
60611;BME280;46439;51.164;13.572;2023-04-30T06:23:53;100662.64;;;9.32;100.00
60611;BME280;46439;51.164;13.572;2023-04-30T06:26:21;100663.56;;;9.41;100.00
60611;BME280;46439;51.164;13.572;2023-04-30T06:28:50;100667.00;;;9.46;100.00
60611;BME280;46439;51.164;13.572;2023-04-30T06:31:18;100670.12;;;9.61;100.00
60611;BME280;46439;51.164;13.572;2023-04-30T06:33:47;100667.66;;;9.73;100.00
60611;BME280;46439;51.164;13.572;2023-04-30T06:36:15;100663.71;;;9.80;100.00
60611;BME280;46439;51.164;13.572;2023-04-30T06:38:44;100663.27;;;9.88;100.00
60611;BME280;46439;51.164;13.572;2023-04-30T06:41:14;100665.65;;;9.97;100.00
60611;BME280;46439;51.164;13.572;2023-04-30T06:43:43;100657.38;;;10.06;100.00
60611;BME280;46439;51.164;13.572;2023-04-30T06:46:12;100657.95;;;10.12;100.00
60611;BME280;46439;51.164;13.572;2023-04-30T06:48:42;100653.79;;;10.23;100.00
60611;BME280;46439;51.164;13.572;2023-04-30T06:51:10;100657.45;;;10.34;100.00
60611;BME280;46439;51.164;13.572;2023-04-30T06:53:39;100663.38;;;10.42;100.00
60611;BME280;46439;51.164;13.572;2023-04-30T06:56:08;100669.31;;;10.42;100.00
60611;BME280;46439;51.164;13.572;2023-04-30T06:58:37;100668.48;;;10.43;100.00
60611;BME280;46439;51.164;13.572;2023-04-30T07:01:05;100665.80;;;10.48;100.00
60611;BME280;46439;51.164;13.572;2023-04-30T07:03:34;100667.23;;;10.51;100.00
60611;BME280;46439;51.164;13.572;2023-04-30T07:06:03;100664.83;;;10.55;100.00
60611;BME280;46439;51.164;13.572;2023-04-30T07:08:32;100664.56;;;10.66;100.00
60611;BME280;46439;51.164;13.572;2023-04-30T07:11:00;100669.90;;;10.74;100.00
60611;BME280;46439;51.164;13.572;2023-04-30T07:13:29;100669.38;;;10.79;100.00
60611;BME280;46439;51.164;13.572;2023-04-30T07:15:57;100665.00;;;10.88;100.00
60611;BME280;46439;51.164;13.572;2023-04-30T07:18:26;100668.92;;;10.95;100.00
60611;BME280;46439;51.164;13.572;2023-04-30T07:20:55;100668.59;;;11.03;100.00
60611;BME280;46439;51.164;13.572;2023-04-30T07:23:23;100665.45;;;11.13;100.00
60611;BME280;46439;51.164;13.572;2023-04-30T07:25:52;100665.48;;;11.26;100.00
60611;BME280;46439;51.164;13.572;2023-04-30T07:28:20;100665.45;;;11.34;100.00
60611;BME280;46439;51.164;13.572;2023-04-30T07:30:49;100666.41;;;11.34;100.00
60611;BME280;46439;51.164;13.572;2023-04-30T07:33:17;100666.04;;;11.34;100.00
60611;BME280;46439;51.164;13.572;2023-04-30T07:35:45;100664.69;;;11.33;100.00
60611;BME280;46439;51.164;13.572;2023-04-30T07:38:14;100662.66;;;11.37;100.00
60611;BME280;46439;51.164;13.572;2023-04-30T07:40:44;100664.27;;;11.45;100.00
60611;BME280;46439;51.164;13.572;2023-04-30T07:43:13;100666.80;;;11.48;100.00
60611;BME280;46439;51.164;13.572;2023-04-30T07:45:41;100668.19;;;11.47;100.00
60611;BME280;46439;51.164;13.572;2023-04-30T07:48:10;100668.86;;;11.49;100.00
60611;BME280;46439;51.164;13.572;2023-04-30T07:50:38;100671.38;;;11.77;100.00
60611;BME280;46439;51.164;13.572;2023-04-30T07:53:07;100669.70;;;12.13;100.00
60611;BME280;46439;51.164;13.572;2023-04-30T07:55:37;100667.73;;;12.37;100.00
60611;BME280;46439;51.164;13.572;2023-04-30T07:58:06;100668.95;;;12.45;100.00
60611;BME280;46439;51.164;13.572;2023-04-30T08:00:34;100672.82;;;12.41;100.00
60611;BME280;46439;51.164;13.572;2023-04-30T08:03:03;100674.98;;;12.36;100.00
60611;BME280;46439;51.164;13.572;2023-04-30T08:05:31;100670.58;;;12.34;100.00
60611;BME280;46439;51.164;13.572;2023-04-30T08:08:00;100667.27;;;12.29;100.00
60611;BME280;46439;51.164;13.572;2023-04-30T08:10:29;100672.52;;;12.23;100.00
60611;BME280;46439;51.164;13.572;2023-04-30T08:12:59;100676.45;;;12.18;100.00
60611;BME280;46439;51.164;13.572;2023-04-30T08:15:28;100677.58;;;12.15;100.00
60611;BME280;46439;51.164;13.572;2023-04-30T08:17:56;100677.27;;;12.16;100.00
60611;BME280;46439;51.164;13.572;2023-04-30T08:20:25;100677.49;;;12.25;100.00
60611;BME280;46439;51.164;13.572;2023-04-30T08:22:53;100677.23;;;12.37;100.00
60611;BME280;46439;51.164;13.572;2023-04-30T08:25:22;100673.04;;;12.49;100.00
60611;BME280;46439;51.164;13.572;2023-04-30T08:27:50;100675.41;;;12.60;100.00
60611;BME280;46439;51.164;13.572;2023-04-30T08:30:19;100677.08;;;12.67;100.00
60611;BME280;46439;51.164;13.572;2023-04-30T08:32:48;100677.67;;;12.74;100.00
60611;BME280;46439;51.164;13.572;2023-04-30T08:35:16;100684.48;;;12.71;100.00
60611;BME280;46439;51.164;13.572;2023-04-30T08:37:45;100687.33;;;12.70;100.00
60611;BME280;46439;51.164;13.572;2023-04-30T08:40:14;100684.17;;;12.62;100.00
60611;BME280;46439;51.164;13.572;2023-04-30T08:42:48;100679.38;;;12.66;100.00
60611;BME280;46439;51.164;13.572;2023-04-30T08:45:19;100677.77;;;12.80;100.00
60611;BME280;46439;51.164;13.572;2023-04-30T08:47:49;100676.33;;;12.93;100.00
60611;BME280;46439;51.164;13.572;2023-04-30T08:50:18;100675.61;;;13.01;100.00
60611;BME280;46439;51.164;13.572;2023-04-30T08:52:46;100674.42;;;12.97;100.00
60611;BME280;46439;51.164;13.572;2023-04-30T08:55:15;100679.25;;;12.89;100.00
60611;BME280;46439;51.164;13.572;2023-04-30T08:57:43;100679.45;;;12.85;100.00
60611;BME280;46439;51.164;13.572;2023-04-30T09:00:13;100678.55;;;12.86;100.00
60611;BME280;46439;51.164;13.572;2023-04-30T09:02:43;100675.36;;;12.97;100.00
60611;BME280;46439;51.164;13.572;2023-04-30T09:05:13;100671.77;;;13.09;100.00
60611;BME280;46439;51.164;13.572;2023-04-30T09:07:43;100670.69;;;13.17;100.00
60611;BME280;46439;51.164;13.572;2023-04-30T09:10:19;100672.74;;;13.25;100.00
60611;BME280;46439;51.164;13.572;2023-04-30T09:13:00;100676.25;;;13.26;100.00
60611;BME280;46439;51.164;13.572;2023-04-30T09:15:30;100676.89;;;13.33;100.00
60611;BME280;46439;51.164;13.572;2023-04-30T09:18:10;100677.27;;;13.41;100.00
60611;BME280;46439;51.164;13.572;2023-04-30T09:20:54;100673.85;;;13.47;100.00
60611;BME280;46439;51.164;13.572;2023-04-30T09:23:24;100677.16;;;13.59;100.00
60611;BME280;46439;51.164;13.572;2023-04-30T09:25:52;100673.59;;;13.65;100.00
60611;BME280;46439;51.164;13.572;2023-04-30T09:28:22;100673.07;;;13.71;100.00
60611;BME280;46439;51.164;13.572;2023-04-30T09:30:52;100675.30;;;13.77;100.00
60611;BME280;46439;51.164;13.572;2023-04-30T09:33:20;100673.63;;;13.82;100.00
60611;BME280;46439;51.164;13.572;2023-04-30T09:35:49;100675.15;;;13.86;100.00
60611;BME280;46439;51.164;13.572;2023-04-30T09:38:28;100671.52;;;13.93;100.00
60611;BME280;46439;51.164;13.572;2023-04-30T09:40:58;100671.98;;;13.98;100.00
60611;BME280;46439;51.164;13.572;2023-04-30T09:43:27;100670.23;;;14.01;100.00
60611;BME280;46439;51.164;13.572;2023-04-30T09:45:58;100673.35;;;13.99;100.00
60611;BME280;46439;51.164;13.572;2023-04-30T09:48:27;100676.27;;;13.93;100.00
60611;BME280;46439;51.164;13.572;2023-04-30T09:50:56;100673.71;;;13.90;100.00
60611;BME280;46439;51.164;13.572;2023-04-30T09:53:25;100667.27;;;13.94;100.00
60611;BME280;46439;51.164;13.572;2023-04-30T09:55:54;100660.85;;;14.02;100.00
60611;BME280;46439;51.164;13.572;2023-04-30T09:58:28;100657.49;;;14.20;100.00
60611;BME280;46439;51.164;13.572;2023-04-30T10:00:59;100651.01;;;14.36;100.00
60611;BME280;46439;51.164;13.572;2023-04-30T10:03:29;100645.20;;;14.48;100.00
60611;BME280;46439;51.164;13.572;2023-04-30T10:05:59;100646.13;;;14.58;100.00
60611;BME280;46439;51.164;13.572;2023-04-30T10:08:30;100642.48;;;14.63;100.00
60611;BME280;46439;51.164;13.572;2023-04-30T10:11:03;100639.99;;;14.66;100.00
60611;BME280;46439;51.164;13.572;2023-04-30T10:13:37;100639.10;;;14.67;100.00
60611;BME280;46439;51.164;13.572;2023-04-30T10:16:14;100633.21;;;14.74;100.00
60611;BME280;46439;51.164;13.572;2023-04-30T10:18:47;100628.42;;;14.83;100.00
60611;BME280;46439;51.164;13.572;2023-04-30T10:21:19;100626.02;;;14.91;100.00
60611;BME280;46439;51.164;13.572;2023-04-30T10:23:48;100626.13;;;14.80;100.00
60611;BME280;46439;51.164;13.572;2023-04-30T10:26:18;100623.06;;;14.81;100.00
60611;BME280;46439;51.164;13.572;2023-04-30T10:28:49;100619.79;;;14.87;100.00
60611;BME280;46439;51.164;13.572;2023-04-30T10:31:18;100612.30;;;14.94;100.00
60611;BME280;46439;51.164;13.572;2023-04-30T10:33:56;100607.67;;;15.00;100.00
60611;BME280;46439;51.164;13.572;2023-04-30T10:36:35;100607.37;;;15.06;100.00
60611;BME280;46439;51.164;13.572;2023-04-30T10:39:06;100606.02;;;15.09;100.00
60611;BME280;46439;51.164;13.572;2023-04-30T10:41:35;100605.55;;;15.20;100.00
60611;BME280;46439;51.164;13.572;2023-04-30T10:44:03;100604.82;;;15.30;100.00
60611;BME280;46439;51.164;13.572;2023-04-30T10:46:36;100601.14;;;15.42;100.00
60611;BME280;46439;51.164;13.572;2023-04-30T10:49:05;100594.95;;;15.57;100.00
60611;BME280;46439;51.164;13.572;2023-04-30T10:51:53;100590.68;;;15.63;100.00
60611;BME280;46439;51.164;13.572;2023-04-30T10:54:26;100589.84;;;15.67;100.00
60611;BME280;46439;51.164;13.572;2023-04-30T10:57:10;100593.48;;;15.68;100.00
60611;BME280;46439;51.164;13.572;2023-04-30T10:59:42;100589.89;;;15.68;100.00
60611;BME280;46439;51.164;13.572;2023-04-30T11:02:15;100595.61;;;15.70;100.00
60611;BME280;46439;51.164;13.572;2023-04-30T11:05:11;100591.93;;;15.72;100.00
60611;BME280;46439;51.164;13.572;2023-04-30T11:07:48;100589.96;;;15.78;100.00
60611;BME280;46439;51.164;13.572;2023-04-30T11:10:19;100588.46;;;15.79;100.00
60611;BME280;46439;51.164;13.572;2023-04-30T11:12:52;100585.20;;;15.81;100.00
60611;BME280;46439;51.164;13.572;2023-04-30T11:15:23;100584.31;;;15.86;100.00
60611;BME280;46439;51.164;13.572;2023-04-30T11:17:57;100582.38;;;15.95;100.00
60611;BME280;46439;51.164;13.572;2023-04-30T11:20:26;100576.19;;;15.97;100.00
60611;BME280;46439;51.164;13.572;2023-04-30T11:23:12;100567.86;;;15.99;100.00
60611;BME280;46439;51.164;13.572;2023-04-30T11:25:42;100570.37;;;16.03;100.00
60611;BME280;46439;51.164;13.572;2023-04-30T11:28:15;100568.20;;;16.11;100.00
60611;BME280;46439;51.164;13.572;2023-04-30T11:30:53;100570.33;;;16.16;100.00
60611;BME280;46439;51.164;13.572;2023-04-30T11:33:23;100568.73;;;16.21;100.00
60611;BME280;46439;51.164;13.572;2023-04-30T11:35:52;100564.91;;;16.24;100.00
60611;BME280;46439;51.164;13.572;2023-04-30T11:38:25;100559.05;;;16.31;100.00
60611;BME280;46439;51.164;13.572;2023-04-30T11:40:54;100566.35;;;16.41;100.00
60611;BME280;46439;51.164;13.572;2023-04-30T11:43:27;100569.42;;;16.52;100.00
60611;BME280;46439;51.164;13.572;2023-04-30T11:46:08;100577.90;;;16.55;100.00
60611;BME280;46439;51.164;13.572;2023-04-30T11:48:38;100574.53;;;16.61;100.00
60611;BME280;46439;51.164;13.572;2023-04-30T11:51:14;100576.59;;;16.70;100.00
60611;BME280;46439;51.164;13.572;2023-04-30T11:53:46;100570.75;;;16.79;100.00
60611;BME280;46439;51.164;13.572;2023-04-30T11:56:18;100565.30;;;16.88;100.00
60611;BME280;46439;51.164;13.572;2023-04-30T11:58:48;100561.44;;;16.98;100.00
60611;BME280;46439;51.164;13.572;2023-04-30T12:01:17;100556.84;;;17.08;100.00
60611;BME280;46439;51.164;13.572;2023-04-30T12:03:49;100551.73;;;17.11;100.00
60611;BME280;46439;51.164;13.572;2023-04-30T12:06:24;100557.60;;;17.15;100.00
60611;BME280;46439;51.164;13.572;2023-04-30T12:08:54;100551.90;;;17.18;100.00
60611;BME280;46439;51.164;13.572;2023-04-30T12:11:24;100550.44;;;17.26;100.00
60611;BME280;46439;51.164;13.572;2023-04-30T12:13:54;100545.41;;;17.35;100.00
60611;BME280;46439;51.164;13.572;2023-04-30T12:16:24;100537.77;;;17.47;100.00
60611;BME280;46439;51.164;13.572;2023-04-30T12:18:53;100534.96;;;17.59;100.00
60611;BME280;46439;51.164;13.572;2023-04-30T12:21:23;100535.77;;;17.63;100.00
60611;BME280;46439;51.164;13.572;2023-04-30T12:23:51;100537.23;;;17.64;100.00
60611;BME280;46439;51.164;13.572;2023-04-30T12:26:20;100538.61;;;17.69;100.00
60611;BME280;46439;51.164;13.572;2023-04-30T12:28:50;100544.86;;;17.64;100.00
60611;BME280;46439;51.164;13.572;2023-04-30T12:31:19;100540.71;;;17.63;100.00
60611;BME280;46439;51.164;13.572;2023-04-30T12:33:55;100539.91;;;17.66;100.00
60611;BME280;46439;51.164;13.572;2023-04-30T12:36:30;100538.14;;;17.77;100.00
60611;BME280;46439;51.164;13.572;2023-04-30T12:39:04;100540.58;;;17.83;100.00
60611;BME280;46439;51.164;13.572;2023-04-30T12:41:38;100530.30;;;17.86;100.00
60611;BME280;46439;51.164;13.572;2023-04-30T12:44:22;100529.83;;;17.92;100.00
60611;BME280;46439;51.164;13.572;2023-04-30T12:46:52;100530.29;;;17.93;100.00
60611;BME280;46439;51.164;13.572;2023-04-30T12:49:28;100525.60;;;17.88;100.00